Time;durP1;ratioP1;P1;durP2;ratioP2;P2;SDS_P1;SDS_P2;PMS_P1;PMS_P2;Temp;Humidity;BMP_temperature;BMP_pressure;BME280_temperature;BME280_humidity;BME280_pressure;Samples;Min_cycle;Max_cycle;Signal;HPM_P1;HPM_P2
2024/03/23 00:02:23;;;;;;;0.30;0.30;;;;;;;2.94;78.28;97153.19;5021717;28;20119;-62
2024/03/23 00:04:50;;;;;;;0.30;0.30;;;;;;;3.03;77.38;97154.00;5021644;28;20053;-63
2024/03/23 00:07:17;;;;;;;0.30;0.30;;;;;;;2.97;77.64;97150.59;5021820;28;20562;-63
2024/03/23 00:09:44;;;;;;;0.30;0.30;;;;;;;3.04;76.71;97150.13;5021102;28;20535;-62
2024/03/23 00:12:11;;;;;;;0.25;0.25;;;;;;;3.01;76.88;97145.31;5005224;28;20061;-63
2024/03/23 00:14:38;;;;;;;0.30;0.30;;;;;;;2.91;77.56;97137.41;5021529;28;20061;-64
2024/03/23 00:17:05;;;;;;;0.28;0.28;;;;;;;2.91;77.32;97142.88;5021343;28;20563;-64
2024/03/23 00:19:32;;;;;;;0.30;0.30;;;;;;;2.92;77.69;97136.28;5021916;28;20057;-64
2024/03/23 00:21:58;;;;;;;0.30;0.30;;;;;;;2.96;76.95;97137.25;5022288;28;20057;-63
2024/03/23 00:24:25;;;;;;;0.20;0.20;;;;;;;2.83;77.57;97138.19;5005240;28;20049;-62
2024/03/23 00:26:52;;;;;;;0.30;0.30;;;;;;;2.90;76.94;97138.53;5005030;28;20054;-64
2024/03/23 00:29:19;;;;;;;0.20;0.20;;;;;;;2.97;77.65;97141.63;4988886;28;20517;-63
2024/03/23 00:31:46;;;;;;;0.20;0.20;;;;;;;2.90;77.06;97142.09;5005250;28;20053;-63
2024/03/23 00:34:13;;;;;;;0.30;0.30;;;;;;;2.81;77.94;97134.97;5021746;28;20056;-63
2024/03/23 00:36:40;;;;;;;0.20;0.20;;;;;;;2.69;78.86;97132.03;5021814;28;20060;-64
2024/03/23 00:39:08;;;;;;;0.30;0.30;;;;;;;2.57;79.45;97134.59;5021589;28;20049;-64
2024/03/23 00:41:35;;;;;;;0.30;0.30;;;;;;;2.51;79.53;97124.91;5021402;28;20061;-63
2024/03/23 00:44:02;;;;;;;0.30;0.30;;;;;;;2.47;80.04;97134.84;5004682;28;20508;-63
2024/03/23 00:46:28;;;;;;;0.30;0.30;;;;;;;2.51;79.88;97133.13;5001656;28;20048;-63
2024/03/23 00:48:55;;;;;;;0.20;0.20;;;;;;;1.95;80.52;97067.47;5018059;28;20050;-63
2024/03/23 00:51:22;;;;;;;0.30;0.30;;;;;;;2.36;80.01;97128.06;5018012;28;20139;-64
2024/03/23 00:53:48;;;;;;;0.30;0.30;;;;;;;1.99;80.89;97069.25;5018374;28;20441;-62
2024/03/23 00:56:13;;;;;;;0.30;0.30;;;;;;;1.84;80.90;97066.13;5035136;28;20064;-63
2024/03/23 00:58:39;;;;;;;0.30;0.30;;;;;;;2.04;82.34;97125.69;5018047;28;20144;-65
2024/03/23 01:01:05;;;;;;;0.20;0.20;;;;;;;1.16;82.37;96969.13;5001235;28;20555;-62
2024/03/23 01:03:31;;;;;;;0.30;0.30;;;;;;;2.37;81.14;97129.69;5018181;28;20062;-64
2024/03/23 01:06:06;;;;;;;0.20;0.20;;;;;;;2.36;79.84;97139.00;5010594;28;20484;-63
2024/03/23 01:08:32;;;;;;;0.30;0.30;;;;;;;2.27;79.10;97136.25;5001474;28;20272;-63
2024/03/23 01:10:59;;;;;;;0.30;0.30;;;;;;;2.27;79.32;97130.78;5001573;28;20054;-63
2024/03/23 01:13:25;;;;;;;0.20;0.20;;;;;;;-0.23;80.00;96720.91;5001421;28;20061;-63
2024/03/23 01:15:51;;;;;;;0.20;0.20;;;;;;;2.38;80.25;97128.56;5017184;28;20263;-66
2024/03/23 01:18:18;;;;;;;0.30;0.30;;;;;;;2.07;80.63;97075.88;5001242;28;20064;-63
2024/03/23 01:20:44;;;;;;;0.30;0.30;;;;;;;2.34;80.38;97141.25;5001039;28;20058;-65
2024/03/23 01:23:10;;;;;;;0.20;0.20;;;;;;;2.21;80.67;97106.63;5001181;28;20073;-63
2024/03/23 01:25:36;;;;;;;0.20;0.20;;;;;;;2.01;80.71;97067.00;5001331;28;20050;-63
2024/03/23 01:28:02;;;;;;;0.20;0.20;;;;;;;2.41;81.69;97125.19;5001366;28;20120;-63
2024/03/23 01:30:28;;;;;;;0.30;0.30;;;;;;;2.39;81.15;97121.97;5017573;28;20132;-63
2024/03/23 01:32:53;;;;;;;0.30;0.30;;;;;;;2.45;80.36;97120.72;5017555;28;20056;-63
2024/03/23 01:35:19;;;;;;;0.20;0.20;;;;;;;2.10;80.07;97061.59;5000689;28;20599;-64
2024/03/23 01:37:45;;;;;;;0.20;0.20;;;;;;;2.45;79.65;97126.19;5001569;28;20050;-63
2024/03/23 01:40:13;;;;;;;0.20;0.20;;;;;;;1.72;79.99;97009.41;5025741;28;20539;-63
2024/03/23 01:42:40;;;;;;;0.30;0.30;;;;;;;2.37;80.23;97096.91;5021484;28;20326;-63
2024/03/23 01:45:12;;;;;;;0.30;0.30;;;;;;;1.97;80.55;97040.66;5020765;28;20053;-64
2024/03/23 01:47:38;;;;;;;0.22;0.22;;;;;;;2.38;80.43;97120.38;5020841;28;20050;-64
2024/03/23 01:50:04;;;;;;;0.30;0.30;;;;;;;2.37;80.36;97119.53;5020567;28;20053;-64
2024/03/23 01:52:30;;;;;;;0.30;0.30;;;;;;;2.44;79.83;97119.09;5021064;28;20061;-62
2024/03/23 01:54:56;;;;;;;0.30;0.30;;;;;;;2.47;80.17;97108.34;5004047;28;20543;-63
2024/03/23 01:57:22;;;;;;;0.22;0.22;;;;;;;1.46;79.05;96946.50;5019808;28;20062;-63
2024/03/23 01:59:48;;;;;;;0.30;0.30;;;;;;;2.41;79.85;97114.25;5020479;28;20256;-64
2024/03/23 02:02:14;;;;;;;0.20;0.20;;;;;;;2.26;80.23;97128.38;5004460;28;20060;-63
2024/03/23 02:04:40;;;;;;;0.30;0.30;;;;;;;0.19;80.26;96772.13;5020218;28;20057;-64
2024/03/23 02:07:07;;;;;;;0.30;0.30;;;;;;;2.30;79.96;97116.47;5007135;28;20447;-64
2024/03/23 02:09:33;;;;;;;0.30;0.30;;;;;;;2.12;81.27;97105.81;5007488;28;20058;-63
2024/03/23 02:12:01;;;;;;;0.30;0.30;;;;;;;2.17;80.96;97113.84;5023862;28;20077;-63
2024/03/23 02:14:27;;;;;;;0.20;0.20;;;;;;;2.16;80.50;97104.84;5023923;28;20056;-63
2024/03/23 02:16:53;;;;;;;0.20;0.20;;;;;;;2.15;81.30;97110.63;5023940;28;20486;-63
2024/03/23 02:19:18;;;;;;;0.22;0.22;;;;;;;1.83;81.27;97057.16;5024466;28;20107;-65
2024/03/23 02:21:44;;;;;;;0.30;0.30;;;;;;;2.15;80.98;97110.63;5008194;28;20054;-63
2024/03/23 02:24:10;;;;;;;0.30;0.30;;;;;;;2.18;80.71;97110.00;5024526;28;20084;-63
2024/03/23 02:26:36;;;;;;;0.20;0.20;;;;;;;2.21;80.64;97098.44;5024375;28;20111;-64
2024/03/23 02:29:01;;;;;;;0.30;0.30;;;;;;;2.17;80.39;97102.91;5007949;28;20049;-63
2024/03/23 02:31:27;;;;;;;0.20;0.20;;;;;;;2.01;81.60;97116.19;5023969;28;20053;-63
2024/03/23 02:33:53;;;;;;;0.20;0.20;;;;;;;1.11;81.88;96963.78;5023581;28;20186;-65
2024/03/23 02:36:20;;;;;;;0.30;0.30;;;;;;;1.42;82.21;97005.53;5007134;28;20104;-62
2024/03/23 02:38:46;;;;;;;0.20;0.20;;;;;;;1.97;82.56;97100.72;5023689;28;20053;-63
2024/03/23 02:41:13;;;;;;;0.30;0.30;;;;;;;2.00;82.57;97102.84;5023247;28;20057;-63
2024/03/23 02:43:39;;;;;;;0.20;0.20;;;;;;;1.75;81.87;97046.16;5023466;28;20857;-63
2024/03/23 02:46:05;;;;;;;0.20;0.20;;;;;;;2.18;80.17;97094.41;5023625;28;20053;-63
2024/03/23 02:48:30;;;;;;;0.30;0.30;;;;;;;1.69;80.46;97040.06;5023109;28;20508;-65
2024/03/23 02:50:56;;;;;;;0.30;0.30;;;;;;;2.04;81.71;97093.69;5023180;28;20057;-63
2024/03/23 02:53:22;;;;;;;0.20;0.20;;;;;;;1.98;81.76;97096.88;5023068;28;20132;-64
2024/03/23 02:55:48;;;;;;;0.30;0.30;;;;;;;1.77;82.13;97093.09;5023479;28;20084;-63
2024/03/23 02:58:14;;;;;;;0.20;0.20;;;;;;;1.50;84.07;97075.72;4999671;28;20079;-63
2024/03/23 03:00:40;;;;;;;0.20;0.20;;;;;;;1.64;84.04;97083.03;5003395;28;20293;-64
2024/03/23 03:03:07;;;;;;;0.28;0.28;;;;;;;1.67;83.78;97082.41;5003738;28;20337;-65
2024/03/23 03:05:32;;;;;;;0.30;0.30;;;;;;;1.56;83.09;97066.28;5003600;28;20064;-63
2024/03/23 03:07:58;;;;;;;0.20;0.20;;;;;;;1.34;83.77;97014.47;5003223;28;20053;-63
2024/03/23 03:10:24;;;;;;;0.30;0.30;;;;;;;1.78;83.94;97083.75;5003669;28;20053;-63
2024/03/23 03:12:50;;;;;;;0.20;0.20;;;;;;;1.55;83.62;97048.31;5003731;28;20536;-63
2024/03/23 03:15:15;;;;;;;0.20;0.20;;;;;;;1.35;83.67;97016.09;5003710;28;20057;-63
2024/03/23 03:17:41;;;;;;;0.20;0.20;;;;;;;1.41;82.98;97036.69;5003880;28;20483;-63
2024/03/23 03:20:13;;;;;;;0.20;0.20;;;;;;;1.82;82.26;97084.75;5002909;28;20054;-63
2024/03/23 03:22:39;;;;;;;0.20;0.20;;;;;;;1.71;80.56;97065.09;5003434;28;20139;-65
2024/03/23 03:25:07;;;;;;;0.20;0.20;;;;;;;1.80;80.77;97087.00;5003214;28;20054;-65
2024/03/23 03:27:34;;;;;;;0.20;0.20;;;;;;;1.67;81.46;97085.16;5003335;28;20491;-63
2024/03/23 03:30:01;;;;;;;0.20;0.20;;;;;;;1.54;82.08;97060.34;5003059;28;20062;-63
2024/03/23 03:32:30;;;;;;;0.22;0.22;;;;;;;1.60;81.93;97076.59;5002765;28;20049;-63
2024/03/23 03:34:56;;;;;;;0.20;0.20;;;;;;;1.61;81.87;97081.75;5002427;28;20060;-64
2024/03/23 03:37:22;;;;;;;0.20;0.20;;;;;;;1.68;81.95;97081.28;5002465;28;20057;-64
2024/03/23 03:39:48;;;;;;;0.20;0.20;;;;;;;1.68;81.94;97084.00;5002869;28;20085;-64
2024/03/23 03:42:13;;;;;;;0.30;0.30;;;;;;;1.68;81.79;97081.28;5002949;28;20064;-64
2024/03/23 03:44:39;;;;;;;0.30;0.30;;;;;;;1.70;82.45;97087.25;5002364;28;20054;-65
2024/03/23 03:47:06;;;;;;;0.20;0.20;;;;;;;1.76;82.46;97086.00;5002770;28;20112;-63
2024/03/23 03:49:31;;;;;;;0.20;0.20;;;;;;;1.74;82.34;97088.25;5002233;28;20058;-64
2024/03/23 03:51:57;;;;;;;0.20;0.20;;;;;;;1.36;81.94;97023.16;5002416;28;20054;-63
2024/03/23 03:54:23;;;;;;;0.20;0.20;;;;;;;1.68;82.45;97093.03;5002512;28;20050;-64
2024/03/23 03:56:48;;;;;;;0.20;0.20;;;;;;;1.67;83.12;97072.31;5002745;28;20500;-65
2024/03/23 03:59:15;;;;;;;0.20;0.20;;;;;;;1.71;82.78;97083.41;5002114;28;20100;-63
2024/03/23 04:01:41;;;;;;;0.20;0.20;;;;;;;1.72;82.14;97079.56;5002828;28;20058;-65
2024/03/23 04:04:07;;;;;;;0.25;0.25;;;;;;;1.76;82.11;97086.00;5002960;28;20064;-64
2024/03/23 04:06:35;;;;;;;0.20;0.20;;;;;;;1.76;82.25;97088.72;5002413;28;20100;-64
2024/03/23 04:09:01;;;;;;;0.22;0.22;;;;;;;1.68;82.44;97092.22;5002145;28;20181;-65
2024/03/23 04:11:27;;;;;;;0.20;0.20;;;;;;;1.72;81.75;97090.47;5001676;28;20106;-63
2024/03/23 04:13:53;;;;;;;0.20;0.20;;;;;;;1.63;82.49;97086.91;5002060;28;20583;-65
2024/03/23 04:16:29;;;;;;;0.20;0.20;;;;;;;1.51;82.49;97080.09;5001597;28;20521;-67
2024/03/23 04:18:55;;;;;;;0.20;0.20;;;;;;;1.62;82.98;97096.19;5001903;28;20049;-64
2024/03/23 04:21:22;;;;;;;0.20;0.20;;;;;;;1.63;82.19;97098.59;5002077;28;20123;-63
2024/03/23 04:23:48;;;;;;;0.20;0.20;;;;;;;1.64;81.96;97099.41;5001782;28;20046;-64
2024/03/23 04:26:15;;;;;;;0.20;0.20;;;;;;;1.53;81.70;97099.66;5002242;28;20140;-62
2024/03/23 04:28:41;;;;;;;0.20;0.20;;;;;;;1.60;82.46;97103.91;5001104;28;20057;-63
2024/03/23 04:31:07;;;;;;;0.25;0.25;;;;;;;1.56;82.72;97099.03;5001611;28;20081;-63
2024/03/23 04:33:32;;;;;;;0.22;0.22;;;;;;;1.23;82.79;97045.84;5001379;28;20108;-63
2024/03/23 04:35:58;;;;;;;0.20;0.20;;;;;;;1.68;83.12;97105.84;5002663;28;20048;-64
2024/03/23 04:38:24;;;;;;;0.30;0.30;;;;;;;1.28;81.65;97032.09;5026881;28;20041;-64
2024/03/23 04:40:57;;;;;;;0.20;0.20;;;;;;;0.81;82.30;96959.09;5004802;28;20550;-64
2024/03/23 04:43:23;;;;;;;0.30;0.30;;;;;;;1.84;82.54;97115.28;5021779;28;20049;-63
2024/03/23 04:45:49;;;;;;;0.22;0.22;;;;;;;1.31;82.38;97026.00;5021420;28;20054;-63
2024/03/23 04:48:15;;;;;;;0.20;0.20;;;;;;;1.76;83.32;97102.38;5021618;28;20054;-63
2024/03/23 04:50:41;;;;;;;0.30;0.30;;;;;;;1.84;82.16;97099.69;5021279;28;20061;-65
2024/03/23 04:53:07;;;;;;;0.25;0.25;;;;;;;1.60;82.64;97031.00;5021859;28;20053;-64
2024/03/23 04:55:33;;;;;;;0.20;0.20;;;;;;;1.92;82.26;97076.28;5021257;28;20061;-65
2024/03/23 04:57:59;;;;;;;0.20;0.20;;;;;;;1.74;82.38;97017.25;5004561;28;20119;-63
2024/03/23 05:00:26;;;;;;;0.25;0.25;;;;;;;1.91;82.57;97061.03;5021102;28;20053;-63
2024/03/23 05:02:52;;;;;;;0.22;0.22;;;;;;;2.19;82.56;97089.75;5021312;28;20049;-63
2024/03/23 05:05:18;;;;;;;0.30;0.30;;;;;;;2.41;82.40;97092.41;5021137;28;20053;-63
2024/03/23 05:07:44;;;;;;;0.30;0.30;;;;;;;2.52;81.71;97096.44;5020940;28;20056;-63
2024/03/23 05:10:11;;;;;;;0.30;0.30;;;;;;;2.24;81.32;97059.56;5020808;28;20057;-63
2024/03/23 05:12:40;;;;;;;0.30;0.30;;;;;;;-0.18;79.95;96633.72;5020992;28;20053;-63
2024/03/23 05:15:07;;;;;;;0.30;0.30;;;;;;;2.79;80.03;97096.19;5020757;28;20103;-63
2024/03/23 05:17:33;;;;;;;0.30;0.30;;;;;;;2.47;80.41;97025.53;5021136;28;20119;-64
2024/03/23 05:19:59;;;;;;;0.30;0.30;;;;;;;3.16;79.17;97094.78;5020550;28;20487;-63
2024/03/23 05:22:25;;;;;;;0.30;0.30;;;;;;;3.35;77.66;97093.31;5020923;28;20096;-64
2024/03/23 05:24:51;;;;;;;0.30;0.30;;;;;;;2.88;76.87;97020.41;5020895;28;20053;-63
2024/03/23 05:27:16;;;;;;;0.30;0.30;;;;;;;2.94;77.63;97024.63;5020903;28;20302;-64
2024/03/23 05:29:42;;;;;;;0.30;0.30;;;;;;;3.55;78.37;97092.69;5020515;28;20057;-64
2024/03/23 05:32:08;;;;;;;0.30;0.30;;;;;;;3.60;78.21;97058.84;5020713;28;20053;-64
2024/03/23 05:34:33;;;;;;;0.30;0.30;;;;;;;4.02;75.47;97099.84;5020682;28;20049;-64
2024/03/23 05:36:59;;;;;;;0.30;0.30;;;;;;;4.17;74.80;97102.03;5020759;28;20520;-64
2024/03/23 05:39:25;;;;;;;0.30;0.30;;;;;;;4.19;74.67;97097.03;5014799;28;20348;-64
2024/03/23 05:41:51;;;;;;;0.30;0.30;;;;;;;4.47;74.42;97094.69;4991549;28;20057;-64
2024/03/23 05:44:17;;;;;;;0.30;0.30;;;;;;;4.68;72.87;97089.25;5004908;28;20065;-64
2024/03/23 05:46:48;;;;;;;0.30;0.30;;;;;;;4.28;72.39;97004.59;5004744;28;20468;-65
2024/03/23 05:49:14;;;;;;;0.30;0.30;;;;;;;4.98;70.80;97080.66;5004360;28;20062;-63
2024/03/23 05:51:40;;;;;;;0.30;0.30;;;;;;;5.24;69.49;97091.44;4987944;28;20066;-63
2024/03/23 05:54:06;;;;;;;0.30;0.30;;;;;;;5.36;69.77;97097.03;5004747;28;20053;-63
2024/03/23 05:56:31;;;;;;;0.30;0.30;;;;;;;5.52;68.48;97087.00;5004500;28;20440;-63
2024/03/23 05:58:57;;;;;;;0.30;0.30;;;;;;;5.61;67.05;97085.00;5003857;28;20517;-64
2024/03/23 06:01:23;;;;;;;0.30;0.30;;;;;;;5.72;65.90;97069.69;5004384;28;20053;-63
2024/03/23 06:03:49;;;;;;;0.30;0.30;;;;;;;5.90;65.35;97082.94;5004018;28;20100;-62
2024/03/23 06:06:14;;;;;;;0.30;0.30;;;;;;;5.45;65.13;97001.59;5004483;28;20053;-64
2024/03/23 06:08:40;;;;;;;0.30;0.30;;;;;;;5.82;65.51;97089.34;5004195;28;20061;-64
2024/03/23 06:11:06;;;;;;;0.30;0.30;;;;;;;5.68;66.67;97052.28;5004071;28;20095;-65
2024/03/23 06:13:33;;;;;;;0.30;0.30;;;;;;;5.91;67.45;97078.28;5004555;28;20496;-64
2024/03/23 06:16:00;;;;;;;0.30;0.30;;;;;;;6.29;68.22;97073.31;5004625;28;20056;-64
2024/03/23 06:18:26;;;;;;;0.30;0.30;;;;;;;5.84;67.96;96959.81;4988607;28;20046;-64
2024/03/23 06:20:52;;;;;;;0.30;0.30;;;;;;;6.40;67.57;97035.97;5004678;28;20061;-63
2024/03/23 06:23:19;;;;;;;0.30;0.30;;;;;;;6.89;67.53;97070.53;5005103;28;20054;-64
2024/03/23 06:25:46;;;;;;;0.40;0.40;;;;;;;6.99;66.56;97059.06;5004806;28;20540;-65
2024/03/23 06:28:12;;;;;;;0.40;0.40;;;;;;;7.32;65.91;97067.13;5004635;28;20058;-64
2024/03/23 06:30:37;;;;;;;0.40;0.40;;;;;;;7.47;64.07;97069.97;5004053;28;20057;-65
2024/03/23 06:33:03;;;;;;;0.40;0.40;;;;;;;7.67;63.59;97079.19;5004091;28;20058;-64
2024/03/23 06:35:29;;;;;;;0.40;0.40;;;;;;;7.46;63.38;97018.75;5003819;28;20061;-65
2024/03/23 06:37:55;;;;;;;0.40;0.40;;;;;;;7.87;61.15;97031.31;5003520;28;20432;-65
2024/03/23 06:40:20;;;;;;;0.40;0.40;;;;;;;8.12;61.04;97065.06;5003416;28;20061;-64
2024/03/23 06:42:46;;;;;;;0.40;0.40;;;;;;;8.36;60.88;97067.72;5004066;28;20062;-65
2024/03/23 06:45:12;;;;;;;0.40;0.40;;;;;;;8.36;59.61;97074.03;5004049;28;20061;-65
2024/03/23 06:47:37;;;;;;;0.40;0.40;;;;;;;8.50;59.84;97062.56;5003539;28;20054;-64
2024/03/23 06:50:04;;;;;;;0.40;0.40;;;;;;;8.74;58.39;97062.38;4987488;28;20140;-64
2024/03/23 06:52:30;;;;;;;0.40;0.40;;;;;;;8.92;56.96;97060.81;5003308;28;20433;-64
2024/03/23 06:54:57;;;;;;;0.40;0.40;;;;;;;8.61;56.58;96997.34;5003264;28;20049;-64
2024/03/23 06:57:23;;;;;;;0.40;0.40;;;;;;;9.08;56.55;97023.72;4990004;28;20511;-64
2024/03/23 06:59:49;;;;;;;0.40;0.40;;;;;;;9.22;56.52;97006.63;5010097;28;20061;-64
2024/03/23 07:02:16;;;;;;;0.40;0.40;;;;;;;9.74;55.72;97042.88;5002984;28;20424;-67
2024/03/23 07:04:42;;;;;;;0.47;0.47;;;;;;;9.43;55.40;96984.16;5018992;28;20065;-65
2024/03/23 07:07:07;;;;;;;0.50;0.50;;;;;;;10.04;55.57;97060.47;5001984;28;20054;-65
2024/03/23 07:09:33;;;;;;;0.50;0.50;;;;;;;10.14;54.94;97040.53;5002130;28;20058;-65
2024/03/23 07:11:59;;;;;;;0.50;0.50;;;;;;;9.00;54.92;96838.81;5018123;28;20603;-68
2024/03/23 07:14:25;;;;;;;0.50;0.50;;;;;;;10.25;54.05;96993.66;4999405;28;20062;-65
2024/03/23 07:16:51;;;;;;;0.50;0.50;;;;;;;10.49;53.50;96991.31;5007446;28;20133;-66
2024/03/23 07:19:17;;;;;;;0.50;0.50;;;;;;;10.89;52.71;97028.75;5020518;28;20511;-62
2024/03/23 07:21:47;;;;;;;0.50;0.50;;;;;;;10.84;52.31;97027.09;5021259;28;20138;-70
2024/03/23 07:24:13;;;;;;;0.50;0.50;;;;;;;11.17;50.90;97029.97;5015498;28;20551;-64
2024/03/23 07:26:39;;;;;;;0.50;0.50;;;;;;;11.15;50.83;97014.88;5002132;28;20504;-64
2024/03/23 07:29:06;;;;;;;0.50;0.50;;;;;;;11.61;50.83;97027.38;4986585;28;20093;-68
2024/03/23 07:31:32;;;;;;;0.50;0.50;;;;;;;11.69;50.03;97006.91;5002204;28;20065;-61
2024/03/23 07:33:57;;;;;;;0.50;0.50;;;;;;;11.04;49.02;96869.78;5002533;28;20406;-66
2024/03/23 07:36:24;;;;;;;0.60;0.60;;;;;;;11.75;47.49;97033.13;5002217;28;20049;-66
2024/03/23 07:38:50;;;;;;;0.60;0.60;;;;;;;10.47;47.11;96807.31;5001373;28;20460;-73
2024/03/23 07:41:18;;;;;;;0.50;0.50;;;;;;;12.18;46.81;97010.22;5001304;28;20053;-60
2024/03/23 07:43:45;;;;;;;0.50;0.50;;;;;;;12.11;47.60;96991.50;5002202;28;20045;-64
2024/03/23 07:46:12;;;;;;;0.50;0.50;;;;;;;11.57;47.37;96994.03;4985437;28;20054;-62
2024/03/23 07:48:42;;;;;;;0.52;0.52;;;;;;;12.04;47.36;97010.09;4986099;28;20505;-64
2024/03/23 07:51:10;;;;;;;0.60;0.60;;;;;;;12.20;47.43;96988.44;5002718;28;20073;-65
2024/03/23 07:53:38;;;;;;;0.60;0.60;;;;;;;12.20;46.73;96999.56;5005471;28;20253;-61
2024/03/23 07:56:08;;;;;;;0.60;0.60;;;;;;;11.85;46.67;96904.81;4987919;28;20414;-68
2024/03/23 07:58:34;;;;;;;0.50;0.50;;;;;;;11.68;46.67;96894.34;4985440;28;20066;-66
2024/03/23 08:01:05;;;;;;;0.50;0.50;;;;;;;11.88;47.49;96945.69;5033806;28;20057;-63
2024/03/23 08:03:31;;;;;;;0.57;0.57;;;;;;;12.02;47.25;96960.50;4984464;28;20106;-63
2024/03/23 08:05:58;;;;;;;0.60;0.60;;;;;;;12.47;46.86;96953.75;5000569;28;20524;-67
2024/03/23 08:08:25;;;;;;;0.55;0.55;;;;;;;12.37;46.33;96887.00;4985017;28;20058;-71
2024/03/23 08:10:52;;;;;;;0.60;0.60;;;;;;;12.44;46.69;96921.19;5000380;28;20058;-70
2024/03/23 08:13:19;;;;;;;0.55;0.55;;;;;;;11.01;45.88;96676.53;5000957;28;20069;-71
2024/03/23 08:15:45;;;;;;;0.60;0.60;;;;;;;13.00;45.67;96918.81;5000826;28;20439;-66
2024/03/23 08:18:12;;;;;;;0.60;0.60;;;;;;;13.26;44.20;96932.44;4986132;28;20054;-67
2024/03/23 08:20:37;;;;;;;0.60;0.60;;;;;;;12.90;44.47;96819.44;4999851;28;20041;-71
2024/03/23 08:23:06;;;;;;;0.60;0.60;;;;;;;13.41;43.52;96897.94;5002022;28;20842;-67
2024/03/23 08:25:32;;;;;;;0.60;0.60;;;;;;;11.75;42.11;96616.91;4996810;28;20319;-70
2024/03/23 08:27:58;;;;;;;0.70;0.70;;;;;;;14.13;43.11;96964.53;5000249;28;20115;-68
2024/03/23 08:30:24;;;;;;;0.60;0.60;;;;;;;14.33;39.40;96959.44;5022150;28;20064;-64
2024/03/23 08:32:50;;;;;;;0.68;0.68;;;;;;;14.36;40.48;96959.44;5020657;28;20054;-67
2024/03/23 08:35:16;;;;;;;0.70;0.70;;;;;;;14.37;38.45;96960.25;5000927;28;20058;-67
2024/03/23 08:37:41;;;;;;;0.60;0.60;;;;;;;14.09;38.08;96871.03;4981945;28;20062;-68
2024/03/23 08:40:08;;;;;;;0.60;0.60;;;;;;;14.77;35.53;96948.69;4981621;28;20818;-67
2024/03/23 08:42:34;;;;;;;0.60;0.60;;;;;;;14.78;37.60;96956.66;4994995;28;20053;-65
2024/03/23 08:45:00;;;;;;;0.60;0.60;;;;;;;14.61;37.19;96909.25;4999834;28;20058;-64
2024/03/23 08:47:26;;;;;;;0.70;0.70;;;;;;;14.48;36.47;96899.75;5000769;28;20116;-67
2024/03/23 08:49:52;;;;;;;0.70;0.70;;;;;;;12.73;36.59;96606.16;4999868;28;20065;-65
2024/03/23 08:52:18;;;;;;;0.60;0.60;;;;;;;14.52;35.82;96894.94;4983982;28;20057;-64
2024/03/23 08:54:44;;;;;;;0.60;0.60;;;;;;;14.28;37.10;96945.88;5034389;28;20075;-74
2024/03/23 08:57:10;;;;;;;0.60;0.60;;;;;;;14.48;36.25;96916.47;5002930;28;20053;-72
2024/03/23 08:59:37;;;;;;;0.60;0.60;;;;;;;14.97;36.68;96933.09;5000216;28;20101;-70
2024/03/23 09:02:04;;;;;;;0.63;0.63;;;;;;;14.79;36.85;96876.59;4999754;28;20057;-67
2024/03/23 09:04:31;;;;;;;0.70;0.70;;;;;;;15.18;36.34;96933.88;5002919;28;20112;-68
2024/03/23 09:06:58;;;;;;;0.60;0.60;;;;;;;15.26;36.12;96895.56;5027037;28;20181;-64
2024/03/23 09:09:24;;;;;;;0.60;0.60;;;;;;;15.31;35.61;96897.16;4983460;28;20061;-63
2024/03/23 09:11:50;;;;;;;0.70;0.70;;;;;;;15.28;34.84;96854.09;5021760;28;20145;-66
2024/03/23 09:14:16;;;;;;;0.70;0.70;;;;;;;15.54;35.15;96884.31;5002660;28;20488;-70
2024/03/23 09:16:41;;;;;;;0.60;0.60;;;;;;;15.30;34.44;96839.75;5004383;28;20116;-67
2024/03/23 09:19:07;;;;;;;0.70;0.70;;;;;;;15.45;34.06;96842.09;5005169;28;20054;-68
2024/03/23 09:21:33;;;;;;;0.70;0.70;;;;;;;14.20;32.84;96676.81;4987366;28;20068;-61
2024/03/23 09:23:59;;;;;;;0.70;0.70;;;;;;;16.06;32.89;96902.75;5006519;28;20050;-66
2024/03/23 09:26:24;;;;;;;0.73;0.73;;;;;;;14.86;33.06;96890.50;5003148;28;20089;-64
2024/03/23 09:28:50;;;;;;;0.70;0.70;;;;;;;15.18;32.43;96899.59;5004374;28;20487;-64
2024/03/23 09:31:16;;;;;;;0.70;0.70;;;;;;;15.20;32.90;96858.13;4998423;28;20061;-72
2024/03/23 09:33:42;;;;;;;0.70;0.70;;;;;;;15.65;32.79;96885.06;4998114;28;20058;-64
2024/03/23 09:36:09;;;;;;;0.70;0.70;;;;;;;15.37;31.30;96890.75;4994330;28;20129;-67
2024/03/23 09:38:34;;;;;;;0.70;0.70;;;;;;;15.47;29.99;96850.88;4999987;28;20547;-67
2024/03/23 09:41:00;;;;;;;0.60;0.60;;;;;;;14.93;27.14;96753.81;5004763;28;20058;-65
2024/03/23 09:43:28;;;;;;;0.70;0.70;;;;;;;15.67;29.25;96842.75;5002066;28;20509;-74
2024/03/23 09:45:55;;;;;;;0.60;0.60;;;;;;;15.25;31.51;96871.66;5003600;28;20058;-71
2024/03/23 09:48:21;;;;;;;0.60;0.60;;;;;;;15.78;30.73;96863.03;5003037;28;20057;-69
2024/03/23 09:50:48;;;;;;;0.68;0.68;;;;;;;15.75;29.49;96867.44;5003870;28;20061;-69
2024/03/23 09:53:14;;;;;;;0.60;0.60;;;;;;;15.21;30.49;96764.84;5003188;28;20504;-75
2024/03/23 09:55:41;;;;;;;0.68;0.68;;;;;;;15.98;31.19;96859.31;5004016;28;20062;-73
2024/03/23 09:58:08;;;;;;;0.70;0.70;;;;;;;15.60;29.89;96853.97;4987555;28;20065;-73
2024/03/23 10:00:35;;;;;;;0.70;0.70;;;;;;;15.35;30.08;96848.47;4988106;28;20058;-70
2024/03/23 10:03:02;;;;;;;0.65;0.65;;;;;;;15.75;30.75;96844.31;4987862;28;20413;-72
2024/03/23 10:05:31;;;;;;;0.65;0.65;;;;;;;15.96;31.72;96847.75;4988853;28;20248;-75
2024/03/23 10:07:57;;;;;;;0.70;0.70;;;;;;;16.06;29.39;96810.53;4987866;28;20512;-72
2024/03/23 10:10:25;;;;;;;0.70;0.70;;;;;;;15.90;30.10;96751.59;5004109;28;20053;-77
2024/03/23 10:12:51;;;;;;;0.80;0.80;;;;;;;16.50;29.90;96834.97;5004283;28;20489;-76
2024/03/23 10:15:23;;;;;;;0.70;0.70;;;;;;;16.34;29.78;96827.06;5003362;28;20064;-74
2024/03/23 10:17:49;;;;;;;0.70;0.70;;;;;;;15.54;30.62;96800.56;5004130;28;20060;-77
2024/03/23 10:20:22;;;;;;;0.70;0.70;;;;;;;16.44;30.15;96823.41;5003791;28;20136;-76
2024/03/23 10:22:50;;;;;;;0.80;0.80;;;;;;;16.78;29.98;96819.88;5004244;28;20057;-77
2024/03/23 10:25:15;;;;;;;0.70;0.70;;;;;;;16.52;29.53;96755.03;5002305;28;20356;-74
2024/03/23 10:27:43;;;;;;;0.70;0.70;;;;;;;16.83;29.28;96780.25;5002992;28;20132;-77
2024/03/23 10:30:11;;;;;;;0.70;0.70;;;;;;;17.33;29.25;96814.81;5003053;28;20057;-75
2024/03/23 10:32:37;;;;;;;0.80;0.80;;;;;;;17.30;28.27;96798.88;5003890;28;20061;-76
2024/03/23 10:35:22;;;;;;;0.73;0.73;;;;;;;15.43;28.90;96503.19;4987046;28;20111;-78
2024/03/23 10:37:51;;;;;;;0.70;0.70;;;;;;;16.04;29.41;96729.16;5003723;28;20566;-78
2024/03/23 10:40:18;;;;;;;0.70;0.70;;;;;;;16.40;29.55;96763.94;5002982;28;20100;-74
2024/03/23 10:42:44;;;;;;;0.70;0.70;;;;;;;16.70;29.03;96782.00;4998412;28;20437;-75
2024/03/23 10:45:10;;;;;;;0.70;0.70;;;;;;;17.17;28.87;96769.84;5003370;28;20054;-71
2024/03/23 10:47:37;;;;;;;0.80;0.80;;;;;;;17.10;28.92;96744.75;5003636;28;20061;-73
2024/03/23 10:50:05;;;;;;;0.80;0.80;;;;;;;17.44;28.03;96765.06;4983978;28;20062;-73
2024/03/23 10:52:32;;;;;;;0.70;0.70;;;;;;;17.32;28.40;96769.25;4984162;28;20062;-74
2024/03/23 10:55:00;;;;;;;0.70;0.70;;;;;;;17.61;28.53;96758.44;5016574;28;20444;-73
2024/03/23 10:57:34;;;;;;;0.80;0.80;;;;;;;17.46;27.54;96701.06;4986599;28;20058;-75
2024/03/23 11:00:03;;;;;;;0.75;0.75;;;;;;;15.72;28.04;96415.88;4986534;28;20054;-74
2024/03/23 11:02:29;;;;;;;0.70;0.70;;;;;;;18.06;27.87;96742.91;4987254;28;20126;-76
2024/03/23 11:04:55;;;;;;;0.80;0.80;;;;;;;18.14;27.86;96741.56;4986108;28;20046;-75
2024/03/23 11:07:24;;;;;;;0.80;0.80;;;;;;;17.20;28.34;96732.63;5002921;28;20501;-72
2024/03/23 11:09:54;;;;;;;0.80;0.80;;;;;;;17.51;28.66;96737.00;5002396;28;20548;-75
2024/03/23 11:12:22;;;;;;;0.80;0.80;;;;;;;17.92;28.18;96729.13;5002666;28;20056;-73
2024/03/23 11:14:50;;;;;;;0.80;0.80;;;;;;;17.81;27.72;96695.66;5002489;28;20061;-75
2024/03/23 11:17:23;;;;;;;0.80;0.80;;;;;;;17.57;28.21;96701.69;5002334;28;20062;-74
2024/03/23 11:19:57;;;;;;;0.70;0.70;;;;;;;17.82;28.72;96718.88;5002523;28;20108;-75
2024/03/23 11:22:52;;;;;;;0.75;0.75;;;;;;;17.40;27.97;96664.31;5018630;28;20057;-69
2024/03/23 11:25:23;;;;;;;0.80;0.80;;;;;;;17.74;28.37;96707.00;5002376;28;20056;-74
2024/03/23 11:27:51;;;;;;;0.80;0.80;;;;;;;18.04;28.03;96697.69;5002700;28;20054;-74
2024/03/23 11:30:25;;;;;;;0.77;0.77;;;;;;;17.82;27.67;96697.28;4985769;28;20474;-73
2024/03/23 11:32:53;;;;;;;0.80;0.80;;;;;;;17.74;27.66;96622.16;5003298;28;20058;-75
2024/03/23 11:35:28;;;;;;;0.80;0.80;;;;;;;18.24;27.30;96684.50;5006272;28;20063;-75
2024/03/23 11:38:09;;;;;;;0.90;0.90;;;;;;;18.36;27.75;96680.28;5031515;28;20061;-74